Rocky Mount, North Carolina
Current Conditions -  °F | °C
As of 11:53 PM on Thursday 30 Oct 2014 (Local Time) from KRWI Reporting Station
Clear Clear  
Wind Chill: 47°   Ceiling: Unl
Heat Index: 47°   Visibility: 10mi
Dew Point: 44°   Wind: 3mph
Humidity: 90%   Direction: 30°NNE
Pressure: 30"   Gusts: NA
Location:  35.95°N, 77.79°W
Report Text: KRWI 310353Z AUTO 03003KT 10SM CLR 08/07 A3000 RMK AO2 SLP159 T00830067
Loading
Personal Weather Stations






























Interactive Weather Map
Tropical Storm Tracking
New forecast layout! Learn more

10-Day Weather Forecast

Advertisements
Track Severe Weather on mobile